createdAt,value
2022-09-15T00:02:13.733Z,2.20
2022-09-15T00:04:43.310Z,2.50
2022-09-15T00:07:11.304Z,2.80
2022-09-15T00:09:39.561Z,2.73
2022-09-15T00:12:08.782Z,2.83
2022-09-15T00:14:38.675Z,2.77
2022-09-15T00:17:06.581Z,2.13
2022-09-15T00:19:34.613Z,2.53
2022-09-15T00:22:15.271Z,2.13
2022-09-15T00:24:43.165Z,2.00
2022-09-15T00:27:12.400Z,1.83
2022-09-15T00:29:40.223Z,2.00
2022-09-15T00:32:20.897Z,1.93
2022-09-15T00:34:51.435Z,1.83
2022-09-15T00:37:20.956Z,2.30
2022-09-15T00:42:40.808Z,2.13
2022-09-15T00:45:18.476Z,2.43
2022-09-15T00:47:47.022Z,1.80
2022-09-15T00:50:19.956Z,1.60
2022-09-15T00:52:54.059Z,1.43
2022-09-15T00:55:26.199Z,1.77
2022-09-15T00:58:04.294Z,0.83
2022-09-15T01:00:57.579Z,1.07
2022-09-15T01:03:27.266Z,0.97
2022-09-15T01:06:00.893Z,1.07
2022-09-15T01:08:37.461Z,0.93
2022-09-15T01:11:05.443Z,1.00
2022-09-15T01:13:33.306Z,1.50
2022-09-15T01:16:20.647Z,1.27
2022-09-15T01:18:57.386Z,1.00
2022-09-15T01:21:34.569Z,1.00
2022-09-15T01:24:32.985Z,1.30
2022-09-15T01:27:42.127Z,1.07
2022-09-15T01:30:14.032Z,1.17
2022-09-15T01:33:06.243Z,1.30
2022-09-15T01:35:58.291Z,1.00
2022-09-15T01:38:42.177Z,1.00
2022-09-15T01:41:17.694Z,0.87
2022-09-15T01:43:51.536Z,1.10
2022-09-15T01:46:38.157Z,1.10
2022-09-15T01:49:22.949Z,1.03
2022-09-15T01:51:53.245Z,1.10
2022-09-15T01:54:25.417Z,1.57
2022-09-15T01:56:56.660Z,1.07
2022-09-15T01:59:24.504Z,0.90
2022-09-15T02:01:59.939Z,0.73
2022-09-15T02:04:31.531Z,0.80
2022-09-15T02:07:06.384Z,0.90
2022-09-15T02:09:40.979Z,1.20
2022-09-15T02:12:15.070Z,1.27
2022-09-15T02:14:53.603Z,0.83
2022-09-15T02:17:25.456Z,0.90
2022-09-15T02:20:03.980Z,1.17
2022-09-15T02:22:37.150Z,0.80
2022-09-15T02:25:10.798Z,0.80
2022-09-15T02:27:44.166Z,0.90
2022-09-15T02:30:15.503Z,1.20
2022-09-15T02:32:51.627Z,1.10
2022-09-15T02:35:22.113Z,0.80
2022-09-15T02:37:50.266Z,1.00
2022-09-15T02:40:18.632Z,0.90
2022-09-15T02:42:54.472Z,0.97
2022-09-15T02:45:23.115Z,0.63
2022-09-15T02:47:52.632Z,0.87
2022-09-15T02:50:32.056Z,1.00
2022-09-15T02:53:00.287Z,0.90
2022-09-15T02:55:29.222Z,0.67
2022-09-15T02:57:57.981Z,1.07
2022-09-15T03:00:26.361Z,1.00
2022-09-15T03:03:00.404Z,0.80
2022-09-15T03:05:34.051Z,0.83
2022-09-15T03:08:02.284Z,1.00
2022-09-15T03:10:30.492Z,1.30
2022-09-15T03:12:58.443Z,0.90
2022-09-15T03:15:28.747Z,0.80
2022-09-15T03:17:59.006Z,0.90
2022-09-15T03:20:31.981Z,0.87
2022-09-15T03:25:36.977Z,0.97
2022-09-15T03:28:05.694Z,1.17
2022-09-15T03:30:40.096Z,0.97
2022-09-15T03:33:17.400Z,0.57
2022-09-15T03:35:47.951Z,0.70
2022-09-15T03:41:15.178Z,1.13
2022-09-15T03:46:34.035Z,1.10
2022-09-15T03:49:17.180Z,0.40
2022-09-15T03:51:51.916Z,0.67
2022-09-15T03:54:20.721Z,0.77
2022-09-15T03:56:52.504Z,0.87
2022-09-15T03:59:21.137Z,0.83
2022-09-15T04:01:50.556Z,1.00
2022-09-15T04:04:19.732Z,0.83
2022-09-15T04:06:56.396Z,0.90
2022-09-15T04:09:25.723Z,1.07
2022-09-15T04:11:53.656Z,1.10
2022-09-15T04:14:23.870Z,0.77
2022-09-15T04:19:44.276Z,1.00
2022-09-15T04:22:17.005Z,1.17
2022-09-15T04:24:48.000Z,0.60
2022-09-15T04:27:21.350Z,0.73
2022-09-15T04:29:52.074Z,1.13
2022-09-15T04:32:27.182Z,1.00
2022-09-15T04:34:56.612Z,1.50
2022-09-15T04:37:26.704Z,0.87
2022-09-15T04:39:54.940Z,0.90
2022-09-15T04:42:22.734Z,0.90
2022-09-15T04:44:50.679Z,1.13
2022-09-15T04:50:02.925Z,1.23
2022-09-15T04:52:30.964Z,1.00
2022-09-15T04:54:58.760Z,0.90
2022-09-15T04:57:26.668Z,1.03
2022-09-15T04:59:54.564Z,0.90
2022-09-15T05:02:22.831Z,1.20
2022-09-15T05:04:54.078Z,1.00
2022-09-15T05:10:41.411Z,1.07
2022-09-15T05:13:09.309Z,1.00
2022-09-15T05:16:09.293Z,0.73
2022-09-15T05:18:37.198Z,1.23
2022-09-15T05:21:06.611Z,0.90
2022-09-15T05:23:37.337Z,1.10
2022-09-15T05:26:09.021Z,1.20
2022-09-15T05:28:38.167Z,1.20
2022-09-15T05:31:09.866Z,1.00
2022-09-15T05:33:38.100Z,1.10
2022-09-15T05:36:07.129Z,1.10
2022-09-15T05:38:36.734Z,0.93
2022-09-15T05:41:05.795Z,1.20
2022-09-15T05:43:34.055Z,1.20
2022-09-15T05:46:02.303Z,1.30
2022-09-15T05:48:30.828Z,1.00
2022-09-15T05:51:01.751Z,0.80
2022-09-15T05:53:30.917Z,1.33
2022-09-15T05:56:01.663Z,1.20
2022-09-15T05:58:29.888Z,1.43
2022-09-15T06:00:57.991Z,1.27
2022-09-15T06:03:30.612Z,1.23
2022-09-15T06:06:02.258Z,1.00
2022-09-15T06:11:59.919Z,1.00
2022-09-15T06:14:32.885Z,1.10
2022-09-15T06:17:01.340Z,1.27
2022-09-15T06:19:29.521Z,1.30
2022-09-15T06:21:57.693Z,1.33
2022-09-15T06:24:25.500Z,1.40
2022-09-15T06:26:54.703Z,0.83
2022-09-15T06:29:22.713Z,1.97
2022-09-15T06:32:14.139Z,1.40
2022-09-15T06:34:46.095Z,1.20
2022-09-15T06:37:17.499Z,1.17
2022-09-15T06:39:45.507Z,1.23
2022-09-15T06:42:14.715Z,1.30
2022-09-15T06:44:56.307Z,1.17
2022-09-15T06:47:25.676Z,1.20
2022-09-15T06:50:00.607Z,0.90
2022-09-15T06:52:34.368Z,0.80
2022-09-15T06:55:03.618Z,0.90
2022-09-15T06:57:36.041Z,1.13
2022-09-15T07:00:05.503Z,0.90
2022-09-15T07:02:36.675Z,1.00
2022-09-15T07:05:10.819Z,0.73
2022-09-15T07:07:39.788Z,1.27
2022-09-15T07:10:08.114Z,0.93
2022-09-15T07:12:39.802Z,0.83
2022-09-15T07:15:12.512Z,1.07
2022-09-15T07:17:40.492Z,0.80
2022-09-15T07:20:09.260Z,0.73
2022-09-15T07:22:37.581Z,0.80
2022-09-15T07:25:11.124Z,1.10
2022-09-15T07:27:40.425Z,0.80
2022-09-15T07:30:08.996Z,0.70
2022-09-15T07:32:36.804Z,0.60
2022-09-15T07:35:06.069Z,0.70
2022-09-15T07:37:41.187Z,0.73
2022-09-15T07:40:12.008Z,0.50
2022-09-15T07:45:27.415Z,0.33
2022-09-15T07:47:56.210Z,0.60
2022-09-15T07:50:26.089Z,1.03
2022-09-15T07:52:56.458Z,0.80
2022-09-15T07:58:11.302Z,0.97
2022-09-15T08:01:22.059Z,1.23
2022-09-15T08:03:59.919Z,1.00
2022-09-15T08:09:15.518Z,0.90
2022-09-15T08:11:53.952Z,0.90
2022-09-15T08:14:21.956Z,0.77
2022-09-15T08:16:55.428Z,0.90
2022-09-15T08:19:33.681Z,0.80
2022-09-15T08:22:17.664Z,0.80
2022-09-15T08:24:52.779Z,1.03
2022-09-15T08:27:20.741Z,1.00
2022-09-15T08:29:49.173Z,0.87
2022-09-15T08:32:21.041Z,1.00
2022-09-15T08:35:02.211Z,0.80
2022-09-15T08:37:40.392Z,0.80
2022-09-15T08:40:39.812Z,1.13
2022-09-15T08:43:16.715Z,1.00
2022-09-15T08:45:50.938Z,1.20
2022-09-15T08:48:25.977Z,1.00
2022-09-15T08:51:11.685Z,1.03
2022-09-15T08:56:37.697Z,0.97
2022-09-15T09:05:29.395Z,0.97
2022-09-15T09:08:51.520Z,0.90
2022-09-15T09:11:29.461Z,1.03
2022-09-15T09:14:17.180Z,1.17
2022-09-15T09:17:23.251Z,1.07
2022-09-15T09:22:53.698Z,1.53
2022-09-15T09:25:28.179Z,5.03
2022-09-15T09:28:07.986Z,2.13
2022-09-15T09:30:40.293Z,1.00
2022-09-15T09:33:24.265Z,0.60
2022-09-15T09:35:59.066Z,0.60
2022-09-15T09:38:34.754Z,1.17
2022-09-15T09:41:26.292Z,0.90
2022-09-15T09:44:01.082Z,1.10
2022-09-15T09:46:28.980Z,1.00
2022-09-15T09:49:03.500Z,0.97
2022-09-15T09:51:35.462Z,3.37
2022-09-15T09:54:20.637Z,4.80
2022-09-15T09:56:51.570Z,3.40
2022-09-15T09:59:59.099Z,1.40
2022-09-15T10:02:42.784Z,3.33
2022-09-15T10:05:21.891Z,2.10
2022-09-15T10:07:52.577Z,2.10
2022-09-15T10:10:23.541Z,0.93
2022-09-15T10:16:04.168Z,1.00
2022-09-15T10:18:50.980Z,1.10
2022-09-15T10:21:55.105Z,3.87
2022-09-15T10:24:45.376Z,1.13
2022-09-15T10:27:49.569Z,1.77
2022-09-15T10:30:57.631Z,1.10
2022-09-15T10:33:53.072Z,0.90
2022-09-15T10:36:33.903Z,0.70
2022-09-15T10:39:18.294Z,0.80
2022-09-15T10:45:23.192Z,0.83
2022-09-15T10:48:41.397Z,0.80
2022-09-15T10:57:11.972Z,1.13
2022-09-15T11:06:58.058Z,0.77
2022-09-15T11:09:38.104Z,0.83
2022-09-15T11:12:25.912Z,0.90
2022-09-15T11:15:13.303Z,1.23
2022-09-15T11:17:54.784Z,0.70
2022-09-15T11:20:49.216Z,1.13
2022-09-15T11:23:38.107Z,1.00
2022-09-15T11:26:16.726Z,0.93
2022-09-15T11:29:00.135Z,0.70
2022-09-15T11:31:35.431Z,0.90
2022-09-15T11:34:12.654Z,1.13
2022-09-15T11:36:49.096Z,1.10
2022-09-15T11:39:24.516Z,0.93
2022-09-15T11:42:04.663Z,0.90
2022-09-15T11:44:35.631Z,1.00
2022-09-15T11:47:23.398Z,1.00
2022-09-15T11:49:56.588Z,0.70
2022-09-15T11:52:59.398Z,1.13
2022-09-15T11:55:37.511Z,1.20
2022-09-15T11:58:22.166Z,0.90
2022-09-15T12:01:09.759Z,0.80
2022-09-15T12:03:45.225Z,1.03
2022-09-15T12:06:32.124Z,1.23
2022-09-15T12:09:02.125Z,0.90
2022-09-15T12:11:32.822Z,1.20
2022-09-15T12:14:05.824Z,0.80
2022-09-15T12:16:36.991Z,0.70
2022-09-15T12:19:12.294Z,0.87
2022-09-15T12:21:58.914Z,0.60
2022-09-15T12:24:38.223Z,0.53
2022-09-15T12:27:11.196Z,0.60
2022-09-15T12:29:49.022Z,0.70
2022-09-15T12:32:27.573Z,0.57
2022-09-15T12:35:03.053Z,0.70
2022-09-15T12:38:04.676Z,0.80
2022-09-15T12:40:58.921Z,0.77
2022-09-15T12:44:23.171Z,1.03
2022-09-15T12:46:55.590Z,0.53
2022-09-15T12:49:30.066Z,0.80
2022-09-15T12:51:59.961Z,0.93
2022-09-15T12:54:32.253Z,0.90
2022-09-15T12:57:01.336Z,0.80
2022-09-15T13:00:12.150Z,1.20
2022-09-15T13:06:15.286Z,0.87
2022-09-15T13:13:59.579Z,0.70
2022-09-15T13:16:40.453Z,0.83
2022-09-15T13:19:37.061Z,0.80
2022-09-15T13:22:13.938Z,0.93
2022-09-15T13:24:49.068Z,0.77
2022-09-15T13:27:22.389Z,1.03
2022-09-15T13:29:55.064Z,0.80
2022-09-15T13:32:40.658Z,1.07
2022-09-15T13:35:37.506Z,0.67
2022-09-15T13:38:37.108Z,0.70
2022-09-15T13:41:55.151Z,0.80
2022-09-15T13:44:53.323Z,0.70
2022-09-15T13:47:33.603Z,0.70
2022-09-15T13:53:47.049Z,0.70
2022-09-15T13:56:22.693Z,0.97
2022-09-15T13:58:57.437Z,0.80
2022-09-15T14:01:52.766Z,0.77
2022-09-15T14:04:32.950Z,0.50
2022-09-15T14:07:24.104Z,0.60
2022-09-15T14:09:57.843Z,0.47
2022-09-15T14:12:25.965Z,0.73
2022-09-15T14:14:58.481Z,0.47
2022-09-15T14:17:28.706Z,0.93
2022-09-15T14:19:59.035Z,0.30
2022-09-15T14:22:39.019Z,0.63
2022-09-15T14:25:09.177Z,0.63
2022-09-15T14:27:46.080Z,0.53
2022-09-15T14:30:20.711Z,0.73
2022-09-15T14:32:55.140Z,0.47
2022-09-15T14:35:27.874Z,0.87
2022-09-15T14:38:00.036Z,0.43
2022-09-15T14:40:35.453Z,0.80
2022-09-15T14:43:16.319Z,1.13
2022-09-15T14:45:57.853Z,0.60
2022-09-15T14:51:24.138Z,0.90
2022-09-15T14:56:45.436Z,0.77
2022-09-15T14:59:18.085Z,1.10
2022-09-15T15:05:38.321Z,0.90
2022-09-15T15:08:17.465Z,0.73
2022-09-15T15:10:51.212Z,0.60
2022-09-15T15:13:19.582Z,1.00
2022-09-15T15:15:47.833Z,0.97
2022-09-15T15:18:42.483Z,0.63
2022-09-15T15:21:38.648Z,0.97
2022-09-15T15:24:26.233Z,0.87
2022-09-15T15:27:02.745Z,0.80
2022-09-15T15:29:43.321Z,0.90
2022-09-15T15:32:21.688Z,0.87
2022-09-15T15:34:52.715Z,0.70
2022-09-15T15:37:29.162Z,0.70
2022-09-15T15:39:58.584Z,0.60
2022-09-15T15:42:31.470Z,0.83
2022-09-15T15:45:01.417Z,0.80
2022-09-15T15:48:08.312Z,0.73
2022-09-15T15:50:36.822Z,0.70
2022-09-15T15:53:04.611Z,0.80
2022-09-15T15:55:40.412Z,0.60
2022-09-15T15:58:11.813Z,0.90
2022-09-15T16:00:44.257Z,0.87
2022-09-15T16:03:12.713Z,1.10
2022-09-15T16:05:53.824Z,0.80
2022-09-15T16:08:31.467Z,0.90
2022-09-15T16:11:07.069Z,1.10
2022-09-15T16:13:38.775Z,0.97
2022-09-15T16:16:17.060Z,0.80
2022-09-15T16:18:45.154Z,1.10
2022-09-15T16:21:24.466Z,0.70
2022-09-15T16:23:55.487Z,0.60
2022-09-15T16:26:25.267Z,0.90
2022-09-15T16:28:55.757Z,0.93
2022-09-15T16:31:25.399Z,1.00
2022-09-15T16:33:54.177Z,1.10
2022-09-15T16:36:23.606Z,0.73
2022-09-15T16:38:51.454Z,0.70
2022-09-15T16:41:23.226Z,1.33
2022-09-15T16:43:51.193Z,0.77
2022-09-15T16:46:21.751Z,0.63
2022-09-15T16:48:50.401Z,0.67
2022-09-15T16:51:28.849Z,0.70
2022-09-15T16:54:00.523Z,0.80
2022-09-15T16:56:33.154Z,0.97
2022-09-15T16:59:01.985Z,0.77
2022-09-15T17:01:33.904Z,0.57
2022-09-15T17:06:44.123Z,0.70
2022-09-15T17:09:12.031Z,1.50
2022-09-15T17:11:43.030Z,0.90
2022-09-15T17:14:15.231Z,1.13
2022-09-15T17:16:47.282Z,0.60
2022-09-15T17:19:15.411Z,0.50
2022-09-15T17:21:43.285Z,0.60
2022-09-15T17:24:11.503Z,0.43
2022-09-15T17:26:39.331Z,0.50
2022-09-15T17:29:10.007Z,0.37
2022-09-15T17:31:37.900Z,0.50
2022-09-15T17:34:10.960Z,0.43
2022-09-15T17:36:40.337Z,0.50
2022-09-15T17:39:08.500Z,0.60
2022-09-15T17:41:38.635Z,0.67
2022-09-15T17:44:13.423Z,0.50
2022-09-15T17:46:43.329Z,0.50
2022-09-15T17:49:12.644Z,0.40
2022-09-15T17:51:40.936Z,0.40
2022-09-15T17:54:19.062Z,0.60
2022-09-15T17:56:46.979Z,0.83
2022-09-15T18:01:58.847Z,1.30
2022-09-15T18:04:30.133Z,1.20
2022-09-15T18:07:05.863Z,0.60
2022-09-15T18:12:57.870Z,0.60
2022-09-15T18:15:45.401Z,1.63
2022-09-15T18:18:16.031Z,2.00
2022-09-15T18:21:04.890Z,1.60
2022-09-15T18:23:41.983Z,1.67
2022-09-15T18:26:09.995Z,1.33
2022-09-15T18:36:34.702Z,0.70
2022-09-15T18:39:02.561Z,0.73
2022-09-15T18:41:37.728Z,0.60
2022-09-15T18:44:10.653Z,1.10
2022-09-15T18:46:39.269Z,0.70
2022-09-15T18:49:09.370Z,0.80
2022-09-15T18:52:03.817Z,0.63
2022-09-15T18:54:36.264Z,0.60
2022-09-15T18:57:14.260Z,0.60
2022-09-15T18:59:42.015Z,0.70
2022-09-15T19:02:12.097Z,0.60
2022-09-15T19:04:40.744Z,1.07
2022-09-15T19:07:13.183Z,0.70
2022-09-15T19:09:40.981Z,0.67
2022-09-15T19:12:09.220Z,1.00
2022-09-15T19:14:37.138Z,0.80
2022-09-15T19:17:07.657Z,0.80
2022-09-15T19:19:35.506Z,0.80
2022-09-15T19:22:04.809Z,0.80
2022-09-15T19:24:35.186Z,0.50
2022-09-15T19:27:03.802Z,1.00
2022-09-15T19:29:34.772Z,0.87
2022-09-15T19:32:03.112Z,0.90
2022-09-15T19:37:18.629Z,1.20
2022-09-15T19:39:48.586Z,0.83
2022-09-15T19:42:16.699Z,0.73
2022-09-15T19:44:44.716Z,0.90
2022-09-15T19:47:12.698Z,1.10
2022-09-15T19:49:40.511Z,0.80
2022-09-15T19:52:08.484Z,0.97
2022-09-15T19:54:36.321Z,0.67
2022-09-15T19:57:07.353Z,0.80
2022-09-15T19:59:36.431Z,1.13
2022-09-15T20:02:04.287Z,1.00
2022-09-15T20:04:32.464Z,0.77
2022-09-15T20:07:01.256Z,0.70
2022-09-15T20:09:29.358Z,0.70
2022-09-15T20:11:57.150Z,0.97
2022-09-15T20:14:26.322Z,0.90
2022-09-15T20:17:01.300Z,0.80
2022-09-15T20:19:29.791Z,0.97
2022-09-15T20:21:57.611Z,0.87
2022-09-15T20:24:26.178Z,0.70
2022-09-15T20:26:54.449Z,0.97
2022-09-15T20:29:23.716Z,1.13
2022-09-15T20:31:53.015Z,0.80
2022-09-15T20:34:21.001Z,1.10
2022-09-15T20:36:51.547Z,0.90
2022-09-15T20:39:23.475Z,0.63
2022-09-15T20:41:51.952Z,0.80
2022-09-15T20:44:19.811Z,0.90
2022-09-15T20:46:47.609Z,0.80
2022-09-15T20:49:25.655Z,0.60
2022-09-15T20:51:53.499Z,1.30
2022-09-15T20:54:21.512Z,0.60
2022-09-15T20:56:51.097Z,0.80
2022-09-15T20:59:19.384Z,1.00
2022-09-15T21:01:47.493Z,0.90
2022-09-15T21:04:26.795Z,0.73
2022-09-15T21:06:58.989Z,0.67
2022-09-15T21:09:26.769Z,0.57
2022-09-15T21:11:54.772Z,1.10
2022-09-15T21:14:24.905Z,0.90
2022-09-15T21:16:52.691Z,0.80
2022-09-15T21:19:21.855Z,0.80
2022-09-15T21:21:49.638Z,0.70
2022-09-15T21:24:17.503Z,0.80
2022-09-15T21:27:17.324Z,0.80
2022-09-15T21:29:45.599Z,0.77
2022-09-15T21:32:13.677Z,0.70
2022-09-15T21:34:44.138Z,0.80
2022-09-15T21:37:12.538Z,1.00
2022-09-15T21:39:41.750Z,0.80
2022-09-15T21:42:10.160Z,0.73
2022-09-15T21:44:37.938Z,0.70
2022-09-15T21:47:05.947Z,0.90
2022-09-15T21:49:34.036Z,0.90
2022-09-15T21:52:03.887Z,1.07
2022-09-15T21:54:31.733Z,1.10
2022-09-15T21:56:59.538Z,0.90
2022-09-15T21:59:27.529Z,1.00
2022-09-15T22:01:55.868Z,1.03
2022-09-15T22:04:23.720Z,1.00
2022-09-15T22:06:52.803Z,0.70
2022-09-15T22:09:21.976Z,1.20
2022-09-15T22:11:50.069Z,0.80
2022-09-15T22:14:17.979Z,1.17
2022-09-15T22:16:45.779Z,1.10
2022-09-15T22:19:14.155Z,1.07
2022-09-15T22:21:42.534Z,1.10
2022-09-15T22:24:11.969Z,1.10
2022-09-15T22:26:42.764Z,0.77
2022-09-15T22:29:10.996Z,0.93
2022-09-15T22:31:39.353Z,0.70
2022-09-15T22:34:07.338Z,0.70
2022-09-15T22:36:35.361Z,0.93
2022-09-15T22:39:05.498Z,0.80
2022-09-15T22:41:34.631Z,1.03
2022-09-15T22:44:04.895Z,0.87
2022-09-15T22:46:33.425Z,0.73
2022-09-15T22:49:01.327Z,0.90
2022-09-15T22:51:29.238Z,0.70
2022-09-15T22:53:58.461Z,0.57
2022-09-15T22:56:26.855Z,1.00
2022-09-15T22:58:58.125Z,0.97
2022-09-15T23:01:30.496Z,0.77
2022-09-15T23:03:59.432Z,0.90
2022-09-15T23:06:30.555Z,0.80
2022-09-15T23:09:00.060Z,0.83
2022-09-15T23:11:29.785Z,1.10
2022-09-15T23:13:57.866Z,0.60
2022-09-15T23:16:28.320Z,0.83
2022-09-15T23:18:56.289Z,1.10
2022-09-15T23:21:24.162Z,1.37
2022-09-15T23:23:54.885Z,1.07
2022-09-15T23:26:24.410Z,1.23
2022-09-15T23:28:52.566Z,1.13
2022-09-15T23:31:21.442Z,1.20
2022-09-15T23:33:50.697Z,1.03
2022-09-15T23:36:20.067Z,1.10
2022-09-15T23:38:48.994Z,0.97
2022-09-15T23:41:18.167Z,1.00
2022-09-15T23:43:46.301Z,0.77
2022-09-15T23:46:14.466Z,1.20
2022-09-15T23:48:42.558Z,0.67
2022-09-15T23:51:11.740Z,0.80
2022-09-15T23:53:39.515Z,0.90
2022-09-15T23:56:07.935Z,0.80
2022-09-15T23:58:35.748Z,0.70
